Bookmark and Share
Track history (hours):
 

MSC Ludovica

Last reported at 2014-Apr-20 18:31 UTC. Time now 2014-Apr-20 19:06 UTC.
Position N 29°37' W 095°00'.

Length 301 m; draft 10.7 m.

Type: Ship. MMSI: 351248000.

NotesDate/timePositionNaut miles runAvg speedWind from/ knotsBaromVisibWave heightAir tempDewpointWater temp
2014-Apr-20 18:31N 29°37' W 095°00'0 0.0
2014-Apr-20 17:31N 29°37' W 095°00'0 0.1
2014-Apr-20 16:31N 29°37' W 095°00'0 0.1
2014-Apr-20 15:31N 29°37' W 095°00'0 0.0
2014-Apr-20 14:31N 29°37' W 095°00'0 0.0
2014-Apr-20 13:31N 29°37' W 095°00'0 0.0
2014-Apr-20 12:31N 29°37' W 095°00'0 0.0
2014-Apr-20 11:31N 29°37' W 095°00'0 0.1
2014-Apr-20 10:33N 29°37' W 095°00'1 1.1
2014-Apr-20 09:33N 29°37' W 094°59'9 8.6
2014-Apr-20 08:33N 29°30' W 094°53'1310.5
2014-Apr-20 07:22N 29°21' W 094°43'1012.7
2014-Apr-20 06:33N 29°16' W 094°33'56311.0
2014-Apr-18 03:22N 20°00' W 096°15'1820.9
2014-Apr-18 02:30N 19°44' W 096°08'2020.8
2014-Apr-18 01:33N 19°25' W 095°60'1514.5
2014-Apr-18 00:33N 19°11' W 096°04'4 3.5
2014-Apr-17 23:28N 19°13' W 096°08'0 0.0
2014-Apr-17 22:28N 19°13' W 096°08'0 0.0
2014-Apr-17 21:31N 19°13' W 096°08'0 0.0
2014-Apr-17 20:25N 19°13' W 096°08'0 0.0
2014-Apr-17 19:31N 19°13' W 096°08'0 0.0
2014-Apr-17 18:31N 19°13' W 096°08'0 0.0
2014-Apr-17 17:31N 19°13' W 096°08'0 0.0
2014-Apr-17 16:31N 19°13' W 096°08'0 0.0
2014-Apr-17 15:31N 19°13' W 096°08'0 0.0
2014-Apr-17 14:31N 19°13' W 096°08'0 0.0
2014-Apr-17 13:31N 19°13' W 096°08'0 0.0
2014-Apr-17 12:31N 19°13' W 096°08'0 0.0
2014-Apr-17 11:31N 19°13' W 096°08'0 0.0
2014-Apr-17 10:31N 19°13' W 096°08'0 0.0
2014-Apr-17 09:31N 19°13' W 096°08'0 0.0
2014-Apr-17 08:31N 19°13' W 096°08'0 0.0
2014-Apr-17 07:31N 19°13' W 096°08'0 0.0
2014-Apr-17 06:31N 19°13' W 096°08'0 0.0
2014-Apr-17 05:31N 19°13' W 096°08'0 0.0
2014-Apr-17 04:31N 19°13' W 096°08'0 0.0
2014-Apr-17 03:31N 19°13' W 096°08'0 0.0
2014-Apr-17 02:31N 19°13' W 096°08'0 0.0
2014-Apr-17 01:31N 19°13' W 096°08'0 0.0
2014-Apr-17 00:31N 19°13' W 096°08'0 0.0
2014-Apr-16 23:31N 19°13' W 096°08'0 0.0
2014-Apr-16 22:31N 19°13' W 096°08'0 0.0
2014-Apr-16 21:31N 19°13' W 096°08'0 0.0
2014-Apr-16 20:31N 19°13' W 096°08'0 0.0
2014-Apr-16 19:31N 19°13' W 096°08'0 0.0
2014-Apr-16 18:25N 19°13' W 096°08'0 0.0
2014-Apr-16 17:25N 19°13' W 096°08'0 0.0
2014-Apr-16 16:33N 19°13' W 096°08'7 6.7
2014-Apr-16 15:34N 19°10' W 096°02'2 1.5
2014-Apr-16 14:31N 19°08' W 096°01'0 0.1
2014-Apr-16 13:21N 19°08' W 096°01'3 4.3
2014-Apr-16 12:33N 19°12' W 096°01'2 2.2
2014-Apr-16 11:33N 19°13' W 095°59'7 6.8
2014-Apr-16 10:33N 19°14' W 095°52'7 6.7
2014-Apr-16 09:33N 19°15' W 095°45'6 5.7
2014-Apr-16 08:25N 19°16' W 095°38'  
2014-Apr-13 15:12N 25°52' W 079°28'1116.6
2014-Apr-13 14:33N 26°03' W 079°25'1818.5
2014-Apr-13 13:33N 26°15' W 079°10'25 1.0
2014-Apr-12 12:13N 26°30' W 078°48'4912.8
2014-Apr-12 08:24N 27°09' W 079°21'  

Dump ship's entire track history

sailing weather and tide predictions

MSC Ludovica — HPAF — position and weather